sensor_id;sensor_type;location;lat;lon;timestamp;pressure;altitude;pressure_sealevel;temperature;humidity
9460;BME280;4768;42.664;23.240;2023-05-19T00:01:27;-9698.25;;;10.10;100.00
9460;BME280;4768;42.664;23.240;2023-05-19T00:03:56;-9698.69;;;10.11;100.00
9460;BME280;4768;42.664;23.240;2023-05-19T00:06:27;-9698.09;;;10.09;100.00
9460;BME280;4768;42.664;23.240;2023-05-19T00:08:57;-9696.84;;;10.05;100.00
9460;BME280;4768;42.664;23.240;2023-05-19T00:11:26;-9693.41;;;9.93;100.00
9460;BME280;4768;42.664;23.240;2023-05-19T00:13:54;-9689.88;;;9.80;100.00
9460;BME280;4768;42.664;23.240;2023-05-19T00:16:23;-9691.00;;;9.84;100.00
9460;BME280;4768;42.664;23.240;2023-05-19T00:18:50;-9692.28;;;9.89;100.00
9460;BME280;4768;42.664;23.240;2023-05-19T00:21:17;-9694.56;;;9.97;100.00
9460;BME280;4768;42.664;23.240;2023-05-19T00:23:44;-9691.56;;;9.86;100.00
9460;BME280;4768;42.664;23.240;2023-05-19T00:26:11;-9693.13;;;9.92;100.00
9460;BME280;4768;42.664;23.240;2023-05-19T00:28:39;-9692.84;;;9.91;100.00
9460;BME280;4768;42.664;23.240;2023-05-19T00:31:06;-9693.56;;;9.93;100.00
9460;BME280;4768;42.664;23.240;2023-05-19T00:33:33;-9693.72;;;9.94;100.00
9460;BME280;4768;42.664;23.240;2023-05-19T00:36:00;-9689.59;;;9.79;100.00
9460;BME280;4768;42.664;23.240;2023-05-19T00:38:28;-9691.28;;;9.85;100.00
9460;BME280;4768;42.664;23.240;2023-05-19T00:40:55;-9691.28;;;9.85;100.00
9460;BME280;4768;42.664;23.240;2023-05-19T00:43:22;-9691.28;;;9.85;100.00
9460;BME280;4768;42.664;23.240;2023-05-19T00:45:50;-9691.56;;;9.86;100.00
9460;BME280;4768;42.664;23.240;2023-05-19T00:48:17;-9694.13;;;9.95;100.00
9460;BME280;4768;42.664;23.240;2023-05-19T00:50:44;-9692.56;;;9.90;100.00
9460;BME280;4768;42.664;23.240;2023-05-19T00:53:12;-9692.44;;;9.89;100.00
9460;BME280;4768;42.664;23.240;2023-05-19T00:55:39;-9692.16;;;9.88;100.00
9460;BME280;4768;42.664;23.240;2023-05-19T00:58:08;-9691.16;;;9.85;100.00
9460;BME280;4768;42.664;23.240;2023-05-19T01:00:35;-9690.88;;;9.84;100.00
9460;BME280;4768;42.664;23.240;2023-05-19T01:03:04;-9686.34;;;9.68;100.00
9460;BME280;4768;42.664;23.240;2023-05-19T01:05:36;-9683.34;;;9.58;100.00
9460;BME280;4768;42.664;23.240;2023-05-19T01:08:04;-9675.56;;;9.30;100.00
9460;BME280;4768;42.664;23.240;2023-05-19T01:10:30;-9673.28;;;9.22;100.00
9460;BME280;4768;42.664;23.240;2023-05-19T01:12:57;-9670.88;;;9.14;100.00
9460;BME280;4768;42.664;23.240;2023-05-19T01:15:25;-9673.00;;;9.21;100.00
9460;BME280;4768;42.664;23.240;2023-05-19T01:17:55;-9673.84;;;9.24;100.00
9460;BME280;4768;42.664;23.240;2023-05-19T01:20:34;-9673.72;;;9.24;100.00
9460;BME280;4768;42.664;23.240;2023-05-19T01:23:23;-9670.16;;;9.12;100.00
9460;BME280;4768;42.664;23.240;2023-05-19T01:26:25;-9668.47;;;9.06;100.00
9460;BME280;4768;42.664;23.240;2023-05-19T01:29:16;-9666.75;;;9.00;100.00
9460;BME280;4768;42.664;23.240;2023-05-19T01:31:51;-9668.88;;;9.07;100.00
9460;BME280;4768;42.664;23.240;2023-05-19T01:34:22;-9670.03;;;9.11;100.00
9460;BME280;4768;42.664;23.240;2023-05-19T01:36:49;-9666.47;;;8.99;100.00
9460;BME280;4768;42.664;23.240;2023-05-19T01:39:17;-9662.94;;;8.86;100.00
9460;BME280;4768;42.664;23.240;2023-05-19T01:41:45;-9661.09;;;8.80;100.00
9460;BME280;4768;42.664;23.240;2023-05-19T01:44:12;-9660.53;;;8.78;100.00
9460;BME280;4768;42.664;23.240;2023-05-19T01:46:40;-9661.22;;;8.80;100.00
9460;BME280;4768;42.664;23.240;2023-05-19T01:49:09;-9657.69;;;8.68;100.00
9460;BME280;4768;42.664;23.240;2023-05-19T01:51:36;-9656.97;;;8.66;100.00
9460;BME280;4768;42.664;23.240;2023-05-19T01:54:03;-9654.28;;;8.56;100.00
9460;BME280;4768;42.664;23.240;2023-05-19T01:56:41;-9652.16;;;8.49;100.00
9460;BME280;4768;42.664;23.240;2023-05-19T01:59:23;-9653.88;;;8.55;100.00
9460;BME280;4768;42.664;23.240;2023-05-19T02:01:56;-9656.69;;;8.65;100.00
9460;BME280;4768;42.664;23.240;2023-05-19T02:04:29;-9653.56;;;8.54;100.00
9460;BME280;4768;42.664;23.240;2023-05-19T02:07:09;-9660.09;;;8.76;100.00
9460;BME280;4768;42.664;23.240;2023-05-19T02:09:46;-9662.38;;;8.84;100.00
9460;BME280;4768;42.664;23.240;2023-05-19T02:12:19;-9664.63;;;8.92;100.00
9460;BME280;4768;42.664;23.240;2023-05-19T02:14:52;-9664.34;;;8.91;100.00
9460;BME280;4768;42.664;23.240;2023-05-19T02:17:21;-9665.91;;;8.97;100.00
9460;BME280;4768;42.664;23.240;2023-05-19T02:19:50;-9671.44;;;9.16;100.00
9460;BME280;4768;42.664;23.240;2023-05-19T02:22:16;-9660.66;;;8.78;100.00
9460;BME280;4768;42.664;23.240;2023-05-19T02:24:43;-9662.50;;;8.85;100.00
9460;BME280;4768;42.664;23.240;2023-05-19T02:27:12;-9660.94;;;8.79;100.00
9460;BME280;4768;42.664;23.240;2023-05-19T02:29:38;-9662.50;;;8.85;100.00
9460;BME280;4768;42.664;23.240;2023-05-19T02:32:06;-9661.66;;;8.82;100.00
9460;BME280;4768;42.664;23.240;2023-05-19T02:34:33;-9664.22;;;8.91;100.00
9460;BME280;4768;42.664;23.240;2023-05-19T02:37:01;-9665.34;;;8.95;100.00
9460;BME280;4768;42.664;23.240;2023-05-19T02:39:28;-9662.66;;;8.85;100.00
9460;BME280;4768;42.664;23.240;2023-05-19T02:41:59;-9661.22;;;8.80;100.00
9460;BME280;4768;42.664;23.240;2023-05-19T02:44:26;-9663.22;;;8.87;100.00
9460;BME280;4768;42.664;23.240;2023-05-19T02:46:52;-9664.50;;;8.92;100.00
9460;BME280;4768;42.664;23.240;2023-05-19T02:49:19;-9664.91;;;8.93;100.00
9460;BME280;4768;42.664;23.240;2023-05-19T02:51:46;-9666.06;;;8.97;100.00
9460;BME280;4768;42.664;23.240;2023-05-19T02:54:14;-9664.63;;;8.92;100.00
9460;BME280;4768;42.664;23.240;2023-05-19T02:56:40;-9667.75;;;9.03;100.00
9460;BME280;4768;42.664;23.240;2023-05-19T02:59:07;-9668.88;;;9.07;100.00
9460;BME280;4768;42.664;23.240;2023-05-19T03:01:34;-9662.66;;;8.85;100.00
9460;BME280;4768;42.664;23.240;2023-05-19T03:04:01;-9666.34;;;8.98;100.00
9460;BME280;4768;42.664;23.240;2023-05-19T03:06:28;-9668.03;;;9.04;100.00
9460;BME280;4768;42.664;23.240;2023-05-19T03:08:57;-9661.66;;;8.82;100.00
9460;BME280;4768;42.664;23.240;2023-05-19T03:11:25;-9664.34;;;8.91;100.00
9460;BME280;4768;42.664;23.240;2023-05-19T03:13:51;-9661.09;;;8.80;100.00
9460;BME280;4768;42.664;23.240;2023-05-19T03:16:18;-9663.94;;;8.90;100.00
9460;BME280;4768;42.664;23.240;2023-05-19T03:18:46;-9661.50;;;8.81;100.00
9460;BME280;4768;42.664;23.240;2023-05-19T03:21:12;-9663.94;;;8.90;100.00
9460;BME280;4768;42.664;23.240;2023-05-19T03:23:39;-9664.22;;;8.91;100.00
9460;BME280;4768;42.664;23.240;2023-05-19T03:26:06;-9664.50;;;8.92;100.00
9460;BME280;4768;42.664;23.240;2023-05-19T03:28:34;-9664.63;;;8.92;100.00
9460;BME280;4768;42.664;23.240;2023-05-19T03:31:00;-9667.31;;;9.02;100.00
9460;BME280;4768;42.664;23.240;2023-05-19T03:33:27;-9667.91;;;9.04;100.00
9460;BME280;4768;42.664;23.240;2023-05-19T03:35:55;-9668.59;;;9.06;100.00
9460;BME280;4768;42.664;23.240;2023-05-19T03:38:22;-9669.72;;;9.10;100.00
9460;BME280;4768;42.664;23.240;2023-05-19T03:40:48;-9669.03;;;9.08;100.00
9460;BME280;4768;42.664;23.240;2023-05-19T03:43:15;-9669.59;;;9.10;100.00
9460;BME280;4768;42.664;23.240;2023-05-19T03:45:43;-9671.28;;;9.15;100.00
9460;BME280;4768;42.664;23.240;2023-05-19T03:48:10;-9669.03;;;9.08;100.00
9460;BME280;4768;42.664;23.240;2023-05-19T03:50:37;-9672.84;;;9.21;100.00
9460;BME280;4768;42.664;23.240;2023-05-19T03:53:03;-9675.69;;;9.31;100.00
9460;BME280;4768;42.664;23.240;2023-05-19T03:55:30;-9677.69;;;9.38;100.00
9460;BME280;4768;42.664;23.240;2023-05-19T03:57:58;-9678.94;;;9.42;100.00
9460;BME280;4768;42.664;23.240;2023-05-19T04:00:24;-9681.09;;;9.50;100.00
9460;BME280;4768;42.664;23.240;2023-05-19T04:02:52;-9683.78;;;9.59;100.00
9460;BME280;4768;42.664;23.240;2023-05-19T04:05:19;-9687.88;;;9.73;100.00
9460;BME280;4768;42.664;23.240;2023-05-19T04:07:46;-9692.56;;;9.90;100.00
9460;BME280;4768;42.664;23.240;2023-05-19T04:10:12;-9698.97;;;10.12;100.00
9460;BME280;4768;42.664;23.240;2023-05-19T04:12:39;-9706.19;;;10.37;100.00
9460;BME280;4768;42.664;23.240;2023-05-19T04:15:07;-9711.88;;;10.57;100.00
9460;BME280;4768;42.664;23.240;2023-05-19T04:17:35;-9717.69;;;10.77;100.00
9460;BME280;4768;42.664;23.240;2023-05-19T04:20:05;-9723.22;;;10.97;100.00
9460;BME280;4768;42.664;23.240;2023-05-19T04:22:32;-9727.19;;;11.10;100.00
9460;BME280;4768;42.664;23.240;2023-05-19T04:24:58;-9723.22;;;10.97;100.00
9460;BME280;4768;42.664;23.240;2023-05-19T04:27:25;-9724.38;;;11.01;100.00
9460;BME280;4768;42.664;23.240;2023-05-19T04:29:54;-9721.81;;;10.92;100.00
9460;BME280;4768;42.664;23.240;2023-05-19T04:32:22;-9723.22;;;10.97;100.00
9460;BME280;4768;42.664;23.240;2023-05-19T04:34:49;-9727.78;;;11.12;100.00
9460;BME280;4768;42.664;23.240;2023-05-19T04:37:17;-9727.63;;;11.12;100.00
9460;BME280;4768;42.664;23.240;2023-05-19T04:39:44;-9730.03;;;11.20;100.00
9460;BME280;4768;42.664;23.240;2023-05-19T04:42:11;-9735.00;;;11.38;100.00
9460;BME280;4768;42.664;23.240;2023-05-19T04:44:38;-9730.63;;;11.22;100.00
9460;BME280;4768;42.664;23.240;2023-05-19T04:47:06;-9734.72;;;11.37;100.00
9460;BME280;4768;42.664;23.240;2023-05-19T04:49:33;-9741.69;;;11.61;100.00
9460;BME280;4768;42.664;23.240;2023-05-19T04:52:04;-9749.94;;;11.90;100.00
9460;BME280;4768;42.664;23.240;2023-05-19T04:54:33;-9759.31;;;12.22;100.00
9460;BME280;4768;42.664;23.240;2023-05-19T04:57:00;-9759.03;;;12.21;100.00
9460;BME280;4768;42.664;23.240;2023-05-19T04:59:26;-9751.34;;;11.95;100.00
9460;BME280;4768;42.664;23.240;2023-05-19T05:01:53;-9764.28;;;12.40;100.00
9460;BME280;4768;42.664;23.240;2023-05-19T05:04:20;-9777.22;;;12.85;100.00
9460;BME280;4768;42.664;23.240;2023-05-19T05:06:47;-9767.84;;;12.52;100.00
9460;BME280;4768;42.664;23.240;2023-05-19T05:09:14;-9772.66;;;12.69;100.00
9460;BME280;4768;42.664;23.240;2023-05-19T05:11:42;-9771.81;;;12.66;100.00
9460;BME280;4768;42.664;23.240;2023-05-19T05:14:10;-9756.19;;;12.11;100.00
9460;BME280;4768;42.664;23.240;2023-05-19T05:16:37;-9764.56;;;12.41;100.00
9460;BME280;4768;42.664;23.240;2023-05-19T05:19:04;-9765.00;;;12.42;100.00
9460;BME280;4768;42.664;23.240;2023-05-19T05:21:32;-9760.44;;;12.26;100.00
9460;BME280;4768;42.664;23.240;2023-05-19T05:23:59;-9755.47;;;12.09;100.00
9460;BME280;4768;42.664;23.240;2023-05-19T05:26:29;-9760.31;;;12.26;100.00
9460;BME280;4768;42.664;23.240;2023-05-19T05:28:59;-9767.84;;;12.52;100.00
9460;BME280;4768;42.664;23.240;2023-05-19T05:31:26;-9778.94;;;12.91;100.00
9460;BME280;4768;42.664;23.240;2023-05-19T05:33:53;-9780.78;;;12.97;100.00
9460;BME280;4768;42.664;23.240;2023-05-19T05:36:20;-9786.47;;;13.17;100.00
9460;BME280;4768;42.664;23.240;2023-05-19T05:38:46;-9790.03;;;13.29;100.00
9460;BME280;4768;42.664;23.240;2023-05-19T05:41:14;-9785.19;;;13.12;100.00
9460;BME280;4768;42.664;23.240;2023-05-19T05:43:40;-9772.66;;;12.69;100.00
9460;BME280;4768;42.664;23.240;2023-05-19T05:46:08;-9780.50;;;12.96;100.00
9460;BME280;4768;42.664;23.240;2023-05-19T05:48:36;-9783.75;;;13.07;100.00
9460;BME280;4768;42.664;23.240;2023-05-19T05:51:03;-9795.56;;;13.49;100.00
9460;BME280;4768;42.664;23.240;2023-05-19T05:53:32;-9801.25;;;13.68;100.00
9460;BME280;4768;42.664;23.240;2023-05-19T05:56:03;-9786.47;;;13.17;100.00
9460;BME280;4768;42.664;23.240;2023-05-19T05:58:29;-9789.72;;;13.28;100.00
9460;BME280;4768;42.664;23.240;2023-05-19T06:00:57;-9800.53;;;13.66;100.00
9460;BME280;4768;42.664;23.240;2023-05-19T06:03:25;-9798.56;;;13.59;100.00
9460;BME280;4768;42.664;23.240;2023-05-19T06:05:52;-9804.94;;;13.81;100.00
9460;BME280;4768;42.664;23.240;2023-05-19T06:08:18;-9799.25;;;13.61;100.00
9460;BME280;4768;42.664;23.240;2023-05-19T06:10:45;-9802.69;;;13.73;100.00
9460;BME280;4768;42.664;23.240;2023-05-19T06:13:12;-9809.22;;;13.96;100.00
9460;BME280;4768;42.664;23.240;2023-05-19T06:15:40;-9801.69;;;13.70;100.00
9460;BME280;4768;42.664;23.240;2023-05-19T06:18:07;-9796.84;;;13.53;100.00
9460;BME280;4768;42.664;23.240;2023-05-19T06:20:35;-9799.53;;;13.62;100.00
9460;BME280;4768;42.664;23.240;2023-05-19T06:23:03;-9797.28;;;13.54;100.00
9460;BME280;4768;42.664;23.240;2023-05-19T06:25:29;-9804.25;;;13.79;100.00
9460;BME280;4768;42.664;23.240;2023-05-19T06:27:56;-9793.00;;;13.40;100.00
9460;BME280;4768;42.664;23.240;2023-05-19T06:30:23;-9817.06;;;14.23;100.00
9460;BME280;4768;42.664;23.240;2023-05-19T06:32:50;-9809.22;;;13.96;100.00
9460;BME280;4768;42.664;23.240;2023-05-19T06:35:16;-9821.47;;;14.39;100.00
9460;BME280;4768;42.664;23.240;2023-05-19T06:37:44;-9808.78;;;13.95;100.00
9460;BME280;4768;42.664;23.240;2023-05-19T06:40:12;-9822.44;;;14.42;100.00
9460;BME280;4768;42.664;23.240;2023-05-19T06:42:38;-9828.16;;;14.62;100.00
9460;BME280;4768;42.664;23.240;2023-05-19T06:45:06;-9818.63;;;14.29;100.00
9460;BME280;4768;42.664;23.240;2023-05-19T06:47:33;-9819.63;;;14.32;100.00
9460;BME280;4768;42.664;23.240;2023-05-19T06:50:00;-9823.59;;;14.46;100.00
9460;BME280;4768;42.664;23.240;2023-05-19T06:52:27;-9836.13;;;14.90;100.00
9460;BME280;4768;42.664;23.240;2023-05-19T06:54:55;-9821.47;;;14.39;100.00
9460;BME280;4768;42.664;23.240;2023-05-19T06:57:22;-9837.53;;;14.95;100.00
9460;BME280;4768;42.664;23.240;2023-05-19T06:59:49;-9832.00;;;14.75;100.00
9460;BME280;4768;42.664;23.240;2023-05-19T07:02:15;-9833.28;;;14.80;100.00
9460;BME280;4768;42.664;23.240;2023-05-19T07:04:42;-9852.63;;;15.47;100.00
9460;BME280;4768;42.664;23.240;2023-05-19T07:07:09;-9858.19;;;15.66;100.00
9460;BME280;4768;42.664;23.240;2023-05-19T07:09:36;-9831.56;;;14.74;100.00
9460;BME280;4768;42.664;23.240;2023-05-19T07:12:04;-9820.88;;;14.37;100.00
9460;BME280;4768;42.664;23.240;2023-05-19T07:14:31;-9825.00;;;14.51;100.00
9460;BME280;4768;42.664;23.240;2023-05-19T07:16:58;-9830.72;;;14.71;100.00
9460;BME280;4768;42.664;23.240;2023-05-19T07:19:24;-9833.69;;;14.81;100.00
9460;BME280;4768;42.664;23.240;2023-05-19T07:21:51;-9848.09;;;15.31;100.00
9460;BME280;4768;42.664;23.240;2023-05-19T07:24:19;-9860.19;;;15.73;100.00
9460;BME280;4768;42.664;23.240;2023-05-19T07:26:46;-9854.78;;;15.54;100.00
9460;BME280;4768;42.664;23.240;2023-05-19T07:29:14;-9858.75;;;15.68;100.00
9460;BME280;4768;42.664;23.240;2023-05-19T07:31:41;-9868.31;;;16.01;100.00
9460;BME280;4768;42.664;23.240;2023-05-19T07:34:08;-9874.44;;;16.23;100.00
9460;BME280;4768;42.664;23.240;2023-05-19T07:36:34;-9845.09;;;15.21;100.00
9460;BME280;4768;42.664;23.240;2023-05-19T07:39:01;-9856.06;;;15.59;100.00
9460;BME280;4768;42.664;23.240;2023-05-19T07:41:28;-9859.03;;;15.69;100.00
9460;BME280;4768;42.664;23.240;2023-05-19T07:43:55;-9861.88;;;15.79;100.00
9460;BME280;4768;42.664;23.240;2023-05-19T07:46:23;-9844.38;;;15.18;100.00
9460;BME280;4768;42.664;23.240;2023-05-19T07:48:50;-9841.53;;;15.08;100.00
9460;BME280;4768;42.664;23.240;2023-05-19T07:51:16;-9849.78;;;15.37;100.00
9460;BME280;4768;42.664;23.240;2023-05-19T07:53:43;-9872.44;;;16.16;100.00
9460;BME280;4768;42.664;23.240;2023-05-19T07:56:11;-9877.28;;;16.33;100.00
9460;BME280;4768;42.664;23.240;2023-05-19T07:58:38;-9870.59;;;16.09;100.00
9460;BME280;4768;42.664;23.240;2023-05-19T08:01:04;-9855.63;;;15.57;100.00
9460;BME280;4768;42.664;23.240;2023-05-19T08:03:32;-9860.91;;;15.76;100.00
9460;BME280;4768;42.664;23.240;2023-05-19T08:05:59;-9864.47;;;15.88;100.00
9460;BME280;4768;42.664;23.240;2023-05-19T08:08:26;-9890.25;;;16.78;100.00
9460;BME280;4768;42.664;23.240;2023-05-19T08:10:52;-9905.06;;;17.29;100.00
9460;BME280;4768;42.664;23.240;2023-05-19T08:13:19;-9884.69;;;16.58;100.00
9460;BME280;4768;42.664;23.240;2023-05-19T08:15:46;-9880.84;;;16.45;100.00
9460;BME280;4768;42.664;23.240;2023-05-19T08:18:13;-9880.84;;;16.45;100.00
9460;BME280;4768;42.664;23.240;2023-05-19T08:20:41;-9884.56;;;16.58;100.00
9460;BME280;4768;42.664;23.240;2023-05-19T08:23:07;-9895.53;;;16.96;100.00
9460;BME280;4768;42.664;23.240;2023-05-19T08:25:34;-9888.69;;;16.72;100.00
9460;BME280;4768;42.664;23.240;2023-05-19T08:28:01;-9885.84;;;16.62;100.00
9460;BME280;4768;42.664;23.240;2023-05-19T08:30:27;-9882.84;;;16.52;100.00
9460;BME280;4768;42.664;23.240;2023-05-19T08:32:54;-9872.28;;;16.15;100.00
9460;BME280;4768;42.664;23.240;2023-05-19T08:35:21;-9884.13;;;16.56;100.00
9460;BME280;4768;42.664;23.240;2023-05-19T08:37:49;-9886.13;;;16.63;100.00
9460;BME280;4768;42.664;23.240;2023-05-19T08:40:16;-9900.38;;;17.13;100.00
9460;BME280;4768;42.664;23.240;2023-05-19T08:42:43;-9913.50;;;17.58;100.00
9460;BME280;4768;42.664;23.240;2023-05-19T08:45:10;-9909.34;;;17.44;100.00
9460;BME280;4768;42.664;23.240;2023-05-19T08:47:38;-9911.06;;;17.50;100.00
9460;BME280;4768;42.664;23.240;2023-05-19T08:50:07;-9901.09;;;17.15;100.00
9460;BME280;4768;42.664;23.240;2023-05-19T08:52:41;-9899.50;;;17.10;100.00
9460;BME280;4768;42.664;23.240;2023-05-19T08:55:19;-9902.66;;;17.21;100.00
9460;BME280;4768;42.664;23.240;2023-05-19T08:57:50;-9895.94;;;16.97;100.00
9460;BME280;4768;42.664;23.240;2023-05-19T09:00:18;-9890.97;;;16.80;100.00
9460;BME280;4768;42.664;23.240;2023-05-19T09:02:46;-9908.34;;;17.41;100.00
9460;BME280;4768;42.664;23.240;2023-05-19T09:05:15;-9927.03;;;18.05;100.00
9460;BME280;4768;42.664;23.240;2023-05-19T09:07:42;-9940.88;;;18.53;100.00
9460;BME280;4768;42.664;23.240;2023-05-19T09:10:09;-9939.16;;;18.47;100.00
9460;BME280;4768;42.664;23.240;2023-05-19T09:12:39;-9957.00;;;19.09;100.00
9460;BME280;4768;42.664;23.240;2023-05-19T09:15:08;-9955.16;;;19.03;100.00
9460;BME280;4768;42.664;23.240;2023-05-19T09:17:35;-9914.78;;;17.63;100.00
9460;BME280;4768;42.664;23.240;2023-05-19T09:20:03;-9911.34;;;17.51;100.00
9460;BME280;4768;42.664;23.240;2023-05-19T09:22:32;-9932.47;;;18.24;100.00
9460;BME280;4768;42.664;23.240;2023-05-19T09:25:00;-9950.88;;;18.88;100.00
9460;BME280;4768;42.664;23.240;2023-05-19T09:27:30;-9948.88;;;18.81;100.00
9460;BME280;4768;42.664;23.240;2023-05-19T09:30:06;-9950.72;;;18.88;100.00
9460;BME280;4768;42.664;23.240;2023-05-19T09:32:34;-9949.88;;;18.85;100.00
9460;BME280;4768;42.664;23.240;2023-05-19T09:35:02;-9943.88;;;18.64;100.00
9460;BME280;4768;42.664;23.240;2023-05-19T09:37:29;-9937.59;;;18.42;100.00
9460;BME280;4768;42.664;23.240;2023-05-19T09:39:56;-9941.16;;;18.54;100.00
9460;BME280;4768;42.664;23.240;2023-05-19T09:42:23;-9953.28;;;18.96;100.00
9460;BME280;4768;42.664;23.240;2023-05-19T09:44:58;-9937.03;;;18.40;100.00
9460;BME280;4768;42.664;23.240;2023-05-19T09:47:28;-9941.31;;;18.55;100.00
9460;BME280;4768;42.664;23.240;2023-05-19T09:49:58;-9944.44;;;18.66;100.00
9460;BME280;4768;42.664;23.240;2023-05-19T09:52:25;-9939.44;;;18.48;100.00
9460;BME280;4768;42.664;23.240;2023-05-19T09:54:52;-9962.00;;;19.27;100.00
9460;BME280;4768;42.664;23.240;2023-05-19T09:57:24;-9960.88;;;19.23;100.00
9460;BME280;4768;42.664;23.240;2023-05-19T09:59:53;-4411.94;;;19.03;100.00
9460;BME280;4768;42.664;23.240;2023-05-19T10:02:22;-598.41;;;19.14;100.00
9460;BME280;4768;42.664;23.240;2023-05-19T10:04:51;6349.88;;;19.41;100.00
9460;BME280;4768;42.664;23.240;2023-05-19T10:07:19;17853.16;;;19.42;100.00
9460;BME280;4768;42.664;23.240;2023-05-19T10:09:49;8786.31;;;19.20;100.00
9460;BME280;4768;42.664;23.240;2023-05-19T10:12:17;14364.19;;;19.53;100.00
9460;BME280;4768;42.664;23.240;2023-05-19T10:14:44;30459.44;;;19.74;100.00
9460;BME280;4768;42.664;23.240;2023-05-19T10:17:12;63959.41;;;19.93;100.00
9460;BME280;4768;42.664;23.240;2023-05-19T10:19:40;39896.91;;;18.88;100.00
9460;BME280;4768;42.664;23.240;2023-05-19T10:22:10;25181.53;;;18.96;100.00
9460;BME280;4768;42.664;23.240;2023-05-19T10:24:37;29725.38;;;18.81;100.00
9460;BME280;4768;42.664;23.240;2023-05-19T10:27:07;31133.47;;;19.01;100.00
9460;BME280;4768;42.664;23.240;2023-05-19T10:29:39;26246.56;;;19.50;100.00
9460;BME280;4768;42.664;23.240;2023-05-19T10:32:10;26932.78;;;19.04;100.00
9460;BME280;4768;42.664;23.240;2023-05-19T10:34:56;43067.59;;;19.02;100.00
9460;BME280;4768;42.664;23.240;2023-05-19T10:37:37;22748.31;;;19.54;100.00
9460;BME280;4768;42.664;23.240;2023-05-19T10:40:11;44857.75;;;19.55;100.00
9460;BME280;4768;42.664;23.240;2023-05-19T10:42:55;23457.19;;;19.91;100.00
9460;BME280;4768;42.664;23.240;2023-05-19T10:45:26;58308.13;;;20.09;100.00
9460;BME280;4768;42.664;23.240;2023-05-19T10:47:53;62227.97;;;20.38;100.00
9460;BME280;4768;42.664;23.240;2023-05-19T10:50:20;134037.69;;;19.58;100.00
9460;BME280;4768;42.664;23.240;2023-05-19T10:52:53;150284.31;;;19.37;100.00
9460;BME280;4768;42.664;23.240;2023-05-19T10:55:46;172055.19;;;19.13;100.00
9460;BME280;4768;42.664;23.240;2023-05-19T10:58:47;170754.09;;;18.83;100.00
9460;BME280;4768;42.664;23.240;2023-05-19T11:01:15;124279.63;;;19.49;100.00
9460;BME280;4768;42.664;23.240;2023-05-19T11:03:47;172094.03;;;19.28;100.00
9460;BME280;4768;42.664;23.240;2023-05-19T11:06:24;171964.00;;;18.80;100.00
9460;BME280;4768;42.664;23.240;2023-05-19T11:08:55;172071.25;;;19.19;100.00
9460;BME280;4768;42.664;23.240;2023-05-19T11:11:22;172175.75;;;19.58;100.00
9460;BME280;4768;42.664;23.240;2023-05-19T11:13:50;172343.38;;;20.20;100.00
9460;BME280;4768;42.664;23.240;2023-05-19T11:16:36;172140.97;;;19.45;100.00
9460;BME280;4768;42.664;23.240;2023-05-19T11:19:05;172027.03;;;19.03;100.00
9460;BME280;4768;42.664;23.240;2023-05-19T11:21:41;172254.91;;;19.87;100.00
9460;BME280;4768;42.664;23.240;2023-05-19T11:24:33;172346.06;;;20.21;100.00
9460;BME280;4768;42.664;23.240;2023-05-19T11:27:23;172391.69;;;20.38;100.00
9460;BME280;4768;42.664;23.240;2023-05-19T11:29:50;172382.25;;;20.34;100.00
9460;BME280;4768;42.664;23.240;2023-05-19T11:32:19;172409.09;;;20.44;100.00
9460;BME280;4768;42.664;23.240;2023-05-19T11:34:47;172384.97;;;20.35;100.00
9460;BME280;4768;42.664;23.240;2023-05-19T11:37:14;172182.47;;;19.60;100.00
9460;BME280;4768;42.664;23.240;2023-05-19T11:39:44;172140.97;;;19.45;100.00
9460;BME280;4768;42.664;23.240;2023-05-19T11:42:11;172175.75;;;19.58;100.00
9460;BME280;4768;42.664;23.240;2023-05-19T11:44:38;172161.06;;;19.52;100.00
9460;BME280;4768;42.664;23.240;2023-05-19T11:47:07;172159.69;;;19.52;100.00
9460;BME280;4768;42.664;23.240;2023-05-19T11:49:33;172091.34;;;19.27;100.00
9460;BME280;4768;42.664;23.240;2023-05-19T11:52:00;171994.84;;;18.91;100.00
9460;BME280;4768;42.664;23.240;2023-05-19T11:54:31;172005.56;;;18.95;100.00
9460;BME280;4768;42.664;23.240;2023-05-19T11:57:02;172021.66;;;19.01;100.00
9460;BME280;4768;42.664;23.240;2023-05-19T11:59:29;171986.81;;;18.88;100.00
9460;BME280;4768;42.664;23.240;2023-05-19T12:02:00;171917.16;;;18.62;100.00
9460;BME280;4768;42.664;23.240;2023-05-19T12:04:27;171870.28;;;18.45;100.00
9460;BME280;4768;42.664;23.240;2023-05-19T12:06:54;15037.47;;;17.38;100.00
9460;BME280;4768;42.664;23.240;2023-05-19T12:09:21;-9878.84;;;16.38;100.00
9460;BME280;4768;42.664;23.240;2023-05-19T12:11:50;-9864.59;;;15.89;100.00
9460;BME280;4768;42.664;23.240;2023-05-19T12:14:18;-9860.19;;;15.73;100.00
9460;BME280;4768;42.664;23.240;2023-05-19T12:16:44;-9857.06;;;15.62;100.00
9460;BME280;4768;42.664;23.240;2023-05-19T12:19:11;-9844.66;;;15.19;100.00
9460;BME280;4768;42.664;23.240;2023-05-19T12:21:39;-9838.81;;;14.99;100.00
9460;BME280;4768;42.664;23.240;2023-05-19T12:24:06;-9837.81;;;14.96;100.00
9460;BME280;4768;42.664;23.240;2023-05-19T12:26:34;-9841.81;;;15.09;100.00
9460;BME280;4768;42.664;23.240;2023-05-19T12:29:03;-9835.53;;;14.88;100.00
9460;BME280;4768;42.664;23.240;2023-05-19T12:31:34;-9831.00;;;14.72;100.00
9460;BME280;4768;42.664;23.240;2023-05-19T12:34:02;-9827.72;;;14.60;100.00
9460;BME280;4768;42.664;23.240;2023-05-19T12:36:30;-9826.59;;;14.56;100.00
9460;BME280;4768;42.664;23.240;2023-05-19T12:38:57;-9833.56;;;14.81;100.00
9460;BME280;4768;42.664;23.240;2023-05-19T12:41:24;-9835.13;;;14.86;100.00
9460;BME280;4768;42.664;23.240;2023-05-19T12:43:52;-9843.53;;;15.15;100.00
9460;BME280;4768;42.664;23.240;2023-05-19T12:46:19;-9845.22;;;15.21;100.00
9460;BME280;4768;42.664;23.240;2023-05-19T12:48:48;-9852.34;;;15.46;100.00
9460;BME280;4768;42.664;23.240;2023-05-19T12:51:16;-9852.63;;;15.47;100.00
9460;BME280;4768;42.664;23.240;2023-05-19T12:53:43;-9852.91;;;15.48;100.00
9460;BME280;4768;42.664;23.240;2023-05-19T12:56:11;-9856.34;;;15.60;100.00
9460;BME280;4768;42.664;23.240;2023-05-19T12:58:39;-9861.31;;;15.77;100.00
9460;BME280;4768;42.664;23.240;2023-05-19T13:01:06;-9862.31;;;15.81;100.00
9460;BME280;4768;42.664;23.240;2023-05-19T13:03:38;-9868.16;;;16.01;100.00
9460;BME280;4768;42.664;23.240;2023-05-19T13:06:08;-9873.16;;;16.18;100.00
9460;BME280;4768;42.664;23.240;2023-05-19T13:08:35;-9874.28;;;16.22;100.00
9460;BME280;4768;42.664;23.240;2023-05-19T13:11:02;-9875.00;;;16.25;100.00